Aeroporto :
LOGIN :

Iscrizione | Disclaimer

   EN    FR    IT 

 










Sommario :    VFR   VFR Marginale   IFR   IFR Intensivo   IFR Molto Intensivo
Visibilità : 
Base nubi : 
>= 8 km
>= 3000ft
5 / 8 km
1000 / 3000 ft
1500m / 5 km
500 / 1000 ft
800 / 1500m
200 / 500 ft
< 800m
< 200 ft
Simboli :   Temporali  Nebbia  Neve Forte  Precipitazioni Forti  Vento > 20 kt
SIGMETs :   Varie  Temporali  Ghiacco  Turbolenza  Onda orograficha  Ceneri Vulcaniche







- Altitudine del aeroporto : 681 ft
- Codice IATA : LBA
- Carte del aeroporto


EGNM - Leeds Bradford

ULTIMO METAR :
  • 240650Z 26004KT CAVOK 13/09 Q1026

METARs OBSOLETI :
  • 240620Z 29005KT CAVOK 11/08 Q1026
  • 240550Z 28005KT CAVOK 10/08 Q1026
  • 240520Z 28005KT CAVOK 10/08 Q1026
  • 240450Z 28007KT CAVOK 09/07 Q1025
  • 240420Z 28007KT CAVOK 09/07 Q1025

TAF TAF EGNM
Valido dal 24 a 06 ore il 25 a 06 ore UTC


240457Z 2406/2506 29007KT CAVOK
ATIS : +44 113 250 9696 (x2489)
Nessun NOTAM noto per questo aeroporto.



MetMap, La meteo Aeronautica in un colpo d'occhio ! - Copyright ORBIFLY Dicembre 2007 - Disclaimer

ORBIFLY MET'MAP TEAM :

Programmazione e sviluppo : Alexandra Zaïnal
Concezione e sviluppo : Baudouin d'Aumeries
Co-Programmazione e sviluppo : Marc-Olivier Méhu
Supporto tecnico e logistico : Manuel Goepfert
Aiuto per la traduzione : Arnaldo La Scala

Contatto : metmap@orbifly.com




FONTI E CREDITI :

   NOAA